createdAt,value
2023-01-29T00:02:18.400Z,21.17
2023-01-29T00:04:45.566Z,20.47
2023-01-29T00:07:12.670Z,21.80
2023-01-29T00:09:40.130Z,16.80
2023-01-29T00:12:10.566Z,16.33
2023-01-29T00:14:37.611Z,16.53
2023-01-29T00:17:04.663Z,16.33
2023-01-29T00:19:31.678Z,17.50
2023-01-29T00:21:58.677Z,16.03
2023-01-29T00:24:25.771Z,15.73
2023-01-29T00:26:52.798Z,17.47
2023-01-29T00:29:28.069Z,19.83
2023-01-29T00:31:55.083Z,19.03
2023-01-29T00:34:23.495Z,18.33
2023-01-29T00:36:50.553Z,19.23
2023-01-29T00:39:17.482Z,18.93
2023-01-29T00:42:02.805Z,20.57
2023-01-29T00:44:48.199Z,19.17
2023-01-29T00:47:44.452Z,19.17
2023-01-29T00:50:13.008Z,17.87
2023-01-29T00:52:43.023Z,19.77
2023-01-29T00:55:11.404Z,19.10
2023-01-29T00:57:39.154Z,17.67
2023-01-29T01:00:10.933Z,18.43
2023-01-29T01:02:56.530Z,18.13
2023-01-29T01:05:24.171Z,18.10
2023-01-29T01:07:54.278Z,17.70
2023-01-29T01:10:28.687Z,16.47
2023-01-29T01:12:58.466Z,18.97
2023-01-29T01:15:30.319Z,17.90
2023-01-29T01:18:00.697Z,18.80
2023-01-29T01:20:31.259Z,19.47
2023-01-29T01:22:58.377Z,18.03
2023-01-29T01:25:27.319Z,18.37
2023-01-29T01:30:26.498Z,18.63
2023-01-29T01:32:53.651Z,18.63
2023-01-29T01:35:20.766Z,19.40
2023-01-29T01:37:47.763Z,19.13
2023-01-29T01:40:19.517Z,19.23
2023-01-29T01:42:52.504Z,19.67
2023-01-29T01:45:29.191Z,18.17
2023-01-29T01:48:08.975Z,20.03
2023-01-29T01:50:50.915Z,18.30
2023-01-29T01:53:28.678Z,18.63
2023-01-29T01:56:22.958Z,18.83
2023-01-29T01:58:55.376Z,17.70
2023-01-29T02:01:28.975Z,17.50
2023-01-29T02:04:43.013Z,19.97
2023-01-29T02:07:33.367Z,18.90
2023-01-29T02:10:11.429Z,18.73
2023-01-29T02:12:38.904Z,20.17
2023-01-29T02:15:07.056Z,21.37
2023-01-29T02:17:48.285Z,20.83
2023-01-29T02:20:24.511Z,20.03
2023-01-29T02:23:06.316Z,21.70
2023-01-29T02:26:13.599Z,20.33
2023-01-29T02:28:56.237Z,22.80
2023-01-29T02:31:41.719Z,22.10
2023-01-29T02:34:24.609Z,23.70
2023-01-29T02:37:03.776Z,23.47
2023-01-29T02:40:05.599Z,24.33
2023-01-29T02:43:08.722Z,24.23
2023-01-29T02:46:10.959Z,23.80
2023-01-29T02:48:52.785Z,23.47
2023-01-29T02:51:27.163Z,23.10
2023-01-29T02:54:15.109Z,23.70
2023-01-29T02:57:04.617Z,21.30
2023-01-29T02:59:54.256Z,23.90
2023-01-29T03:02:46.407Z,25.23
2023-01-29T03:05:21.926Z,24.87
2023-01-29T03:08:00.446Z,24.73
2023-01-29T03:11:04.722Z,23.50
2023-01-29T03:13:40.953Z,23.83
2023-01-29T03:16:50.548Z,25.33
2023-01-29T03:19:50.697Z,24.67
2023-01-29T03:22:21.961Z,25.20
2023-01-29T03:25:13.673Z,26.30
2023-01-29T03:28:08.386Z,25.40
2023-01-29T03:31:02.370Z,26.37
2023-01-29T03:33:36.216Z,26.33
2023-01-29T03:36:11.989Z,27.20
2023-01-29T03:38:40.050Z,26.20
2023-01-29T03:41:29.766Z,26.33
2023-01-29T03:43:59.500Z,26.87
2023-01-29T03:46:42.099Z,28.57
2023-01-29T03:49:52.971Z,27.73
2023-01-29T03:52:39.000Z,25.30
2023-01-29T03:55:29.211Z,26.13
2023-01-29T03:58:09.020Z,27.13
2023-01-29T04:00:45.982Z,26.67
2023-01-29T04:03:33.732Z,28.53
2023-01-29T04:06:27.752Z,26.77
2023-01-29T04:09:22.111Z,27.10
2023-01-29T04:12:00.165Z,25.07
2023-01-29T04:14:27.220Z,25.77
2023-01-29T04:16:57.914Z,27.20
2023-01-29T04:19:25.559Z,26.20
2023-01-29T04:22:27.012Z,25.73
2023-01-29T04:24:54.641Z,25.80
2023-01-29T04:27:41.467Z,26.90
2023-01-29T04:30:24.448Z,25.60
2023-01-29T04:33:19.061Z,25.37
2023-01-29T04:36:07.221Z,25.83
2023-01-29T04:39:23.920Z,26.13
2023-01-29T04:41:54.972Z,26.03
2023-01-29T04:44:24.568Z,27.43
2023-01-29T04:47:22.573Z,26.13
2023-01-29T04:50:18.992Z,26.50
2023-01-29T04:53:04.590Z,25.67
2023-01-29T04:55:48.687Z,24.60
2023-01-29T04:58:38.867Z,26.47
2023-01-29T05:01:11.583Z,25.63
2023-01-29T05:03:41.369Z,25.97
2023-01-29T05:06:11.032Z,26.70
2023-01-29T05:08:39.763Z,26.83
2023-01-29T05:11:07.472Z,24.67
2023-01-29T05:13:39.599Z,26.67
2023-01-29T05:16:12.255Z,26.20
2023-01-29T05:18:39.245Z,25.97
2023-01-29T05:21:08.556Z,25.20
2023-01-29T05:23:35.762Z,27.67
2023-01-29T05:26:03.547Z,26.97
2023-01-29T05:28:30.763Z,27.83
2023-01-29T05:30:58.589Z,26.23
2023-01-29T05:33:31.365Z,27.03
2023-01-29T05:36:02.384Z,27.73
2023-01-29T05:38:29.341Z,25.60
2023-01-29T05:40:59.504Z,27.27
2023-01-29T05:43:27.172Z,25.70
2023-01-29T05:45:55.856Z,26.83
2023-01-29T05:48:24.003Z,26.77
2023-01-29T05:50:52.267Z,25.93
2023-01-29T05:53:19.604Z,27.77
2023-01-29T05:55:47.976Z,26.67
2023-01-29T05:58:14.994Z,27.17
2023-01-29T06:00:42.725Z,26.77
2023-01-29T06:03:09.776Z,26.87
2023-01-29T06:05:40.270Z,25.77
2023-01-29T06:08:10.295Z,26.93
2023-01-29T06:10:37.617Z,26.40
2023-01-29T06:13:04.708Z,26.20
2023-01-29T06:15:31.829Z,25.93
2023-01-29T06:17:58.831Z,25.80
2023-01-29T06:20:26.256Z,26.83
2023-01-29T06:22:53.208Z,26.30
2023-01-29T06:25:20.291Z,26.33
2023-01-29T06:27:53.068Z,26.30
2023-01-29T06:30:20.261Z,27.00
2023-01-29T06:32:47.271Z,26.10
2023-01-29T06:35:14.396Z,25.77
2023-01-29T06:37:41.426Z,26.27
2023-01-29T06:40:09.537Z,26.67
2023-01-29T06:42:36.753Z,26.67
2023-01-29T06:45:04.632Z,26.23
2023-01-29T06:47:31.675Z,27.03
2023-01-29T06:49:58.742Z,25.93
2023-01-29T06:52:28.931Z,25.93
2023-01-29T06:54:56.732Z,24.17
2023-01-29T06:57:30.715Z,25.93
2023-01-29T06:59:57.736Z,24.20
2023-01-29T07:02:24.689Z,26.50
2023-01-29T07:04:51.619Z,24.40
2023-01-29T07:07:18.661Z,23.17
2023-01-29T07:09:45.636Z,21.67
2023-01-29T07:12:12.663Z,22.70
2023-01-29T07:14:39.641Z,21.50
2023-01-29T07:17:06.758Z,23.13
2023-01-29T07:19:33.762Z,23.60
2023-01-29T07:22:03.195Z,22.33
2023-01-29T07:24:30.399Z,22.77
2023-01-29T07:26:57.670Z,23.23
2023-01-29T07:29:24.673Z,20.90
2023-01-29T07:31:51.775Z,21.47
2023-01-29T07:34:18.986Z,21.40
2023-01-29T07:36:45.932Z,21.70
2023-01-29T07:39:13.205Z,23.90
2023-01-29T07:41:41.330Z,22.27
2023-01-29T07:44:32.107Z,22.27
2023-01-29T07:46:59.033Z,21.87
2023-01-29T07:49:25.943Z,21.83
2023-01-29T07:51:52.900Z,21.20
2023-01-29T07:54:19.875Z,22.10
2023-01-29T07:56:46.990Z,23.20
2023-01-29T07:59:13.990Z,21.93
2023-01-29T08:01:40.910Z,23.17
2023-01-29T08:04:07.973Z,23.10
2023-01-29T08:06:34.908Z,24.27
2023-01-29T08:09:02.947Z,23.93
2023-01-29T08:11:29.971Z,22.73
2023-01-29T08:13:57.338Z,24.33
2023-01-29T08:16:24.488Z,25.30
2023-01-29T08:18:51.505Z,24.60
2023-01-29T08:21:18.481Z,24.17
2023-01-29T08:23:45.749Z,23.80
2023-01-29T08:26:12.707Z,22.93
2023-01-29T08:28:39.850Z,21.50
2023-01-29T08:31:22.416Z,23.13
2023-01-29T08:33:50.057Z,21.33
2023-01-29T08:36:17.082Z,22.00
2023-01-29T08:38:44.077Z,21.73
2023-01-29T08:41:11.043Z,22.50
2023-01-29T08:43:38.653Z,22.50
2023-01-29T08:46:07.543Z,23.20
2023-01-29T08:48:35.243Z,23.07
2023-01-29T08:51:04.557Z,22.23
2023-01-29T08:53:32.650Z,22.47
2023-01-29T08:55:59.625Z,22.17
2023-01-29T08:58:26.892Z,21.60
2023-01-29T09:00:53.859Z,20.83
2023-01-29T09:03:20.903Z,22.20
2023-01-29T09:05:47.938Z,21.27
2023-01-29T09:08:15.596Z,21.10
2023-01-29T09:10:42.569Z,21.17
2023-01-29T09:13:09.488Z,20.63
2023-01-29T09:15:36.452Z,21.37
2023-01-29T09:18:05.087Z,19.33
2023-01-29T09:20:32.551Z,21.63
2023-01-29T09:23:06.997Z,20.83
2023-01-29T09:25:34.269Z,21.57
2023-01-29T09:28:01.382Z,21.97
2023-01-29T09:30:28.623Z,22.00
2023-01-29T09:32:55.631Z,22.27
2023-01-29T09:35:23.664Z,22.70
2023-01-29T09:37:51.831Z,21.77
2023-01-29T09:40:27.436Z,22.57
2023-01-29T09:43:10.684Z,23.37
2023-01-29T09:45:43.625Z,22.67
2023-01-29T09:48:13.333Z,21.53
2023-01-29T09:50:44.312Z,22.23
2023-01-29T09:53:29.989Z,22.20
2023-01-29T09:56:03.144Z,21.23
2023-01-29T09:58:40.954Z,21.27
2023-01-29T10:01:55.501Z,20.87
2023-01-29T10:04:25.371Z,21.37
2023-01-29T10:07:17.791Z,21.27
2023-01-29T10:09:50.935Z,22.03
2023-01-29T10:12:58.258Z,22.20
2023-01-29T10:15:40.423Z,20.87
2023-01-29T10:18:28.398Z,22.33
2023-01-29T10:21:32.797Z,22.27
2023-01-29T10:24:32.595Z,22.73
2023-01-29T10:27:00.997Z,22.67
2023-01-29T10:29:29.052Z,22.00
2023-01-29T10:32:05.563Z,23.00
2023-01-29T10:34:41.020Z,23.33
2023-01-29T10:37:24.308Z,23.87
2023-01-29T10:39:51.803Z,23.17
2023-01-29T10:42:31.141Z,23.07
2023-01-29T10:45:22.814Z,22.97
2023-01-29T10:48:27.760Z,24.23
2023-01-29T10:51:55.317Z,22.63
2023-01-29T10:55:00.635Z,22.60
2023-01-29T10:57:39.660Z,23.07
2023-01-29T11:00:16.774Z,21.70
2023-01-29T11:02:46.447Z,22.17
2023-01-29T11:05:59.304Z,22.70
2023-01-29T11:08:51.445Z,20.10
2023-01-29T11:11:22.374Z,20.47
2023-01-29T11:14:07.257Z,21.63
2023-01-29T11:16:43.478Z,20.37
2023-01-29T11:19:11.532Z,20.73
2023-01-29T11:22:17.264Z,20.27
2023-01-29T11:24:44.723Z,19.17
2023-01-29T11:27:26.561Z,20.10
2023-01-29T11:29:54.319Z,20.00
2023-01-29T11:32:26.402Z,20.10
2023-01-29T11:35:23.035Z,20.20
2023-01-29T11:37:50.106Z,19.33
2023-01-29T11:40:20.076Z,18.60
2023-01-29T11:42:47.537Z,18.17
2023-01-29T11:45:20.685Z,18.50
2023-01-29T11:47:56.422Z,17.90
2023-01-29T11:50:30.932Z,18.87
2023-01-29T11:53:00.334Z,19.17
2023-01-29T11:55:48.196Z,18.37
2023-01-29T11:58:33.281Z,18.13
2023-01-29T12:01:02.068Z,18.20
2023-01-29T12:03:40.679Z,18.93
2023-01-29T12:06:17.916Z,18.73
2023-01-29T12:08:45.069Z,19.70
2023-01-29T12:11:34.502Z,19.67
2023-01-29T12:14:05.061Z,18.80
2023-01-29T12:16:58.777Z,17.90
2023-01-29T12:19:57.246Z,16.67
2023-01-29T12:22:35.916Z,19.10
2023-01-29T12:25:20.874Z,17.93
2023-01-29T12:28:15.849Z,17.93
2023-01-29T12:30:59.316Z,19.60
2023-01-29T12:33:57.201Z,18.77
2023-01-29T12:36:33.446Z,19.07
2023-01-29T12:39:00.659Z,17.47
2023-01-29T12:41:51.630Z,18.23
2023-01-29T12:44:21.737Z,17.87
2023-01-29T12:46:55.093Z,18.07
2023-01-29T12:49:30.620Z,18.13
2023-01-29T12:52:23.266Z,21.17
2023-01-29T12:55:04.033Z,19.07
2023-01-29T12:57:50.998Z,19.40
2023-01-29T13:00:26.023Z,19.40
2023-01-29T13:03:01.766Z,18.67
2023-01-29T13:05:43.114Z,17.93
2023-01-29T13:08:25.424Z,19.33
2023-01-29T13:10:55.220Z,19.43
2023-01-29T13:13:54.038Z,19.67
2023-01-29T13:16:26.572Z,19.63
2023-01-29T13:19:27.988Z,18.33
2023-01-29T13:21:59.378Z,18.80
2023-01-29T13:24:34.833Z,19.17
2023-01-29T13:27:02.597Z,19.27
2023-01-29T13:29:31.222Z,19.10
2023-01-29T13:32:04.722Z,18.80
2023-01-29T13:34:35.946Z,19.23
2023-01-29T13:37:11.706Z,32.57
2023-01-29T13:39:49.700Z,27.33
2023-01-29T13:42:32.083Z,20.13
2023-01-29T13:45:04.386Z,19.23
2023-01-29T13:47:37.932Z,19.30
2023-01-29T13:50:20.153Z,21.10
2023-01-29T13:52:54.968Z,26.87
2023-01-29T13:55:43.618Z,20.30
2023-01-29T13:58:32.571Z,22.30
2023-01-29T14:01:01.486Z,20.57
2023-01-29T14:03:35.913Z,19.60
2023-01-29T14:06:39.212Z,19.73
2023-01-29T14:09:32.910Z,19.63
2023-01-29T14:12:00.218Z,18.73
2023-01-29T14:14:49.142Z,19.10
2023-01-29T14:17:18.156Z,19.30
2023-01-29T14:20:17.511Z,21.03
2023-01-29T14:22:44.783Z,22.10
2023-01-29T14:25:19.895Z,18.33
2023-01-29T14:27:50.358Z,18.30
2023-01-29T14:30:19.332Z,19.07
2023-01-29T14:32:51.878Z,18.87
2023-01-29T14:35:30.559Z,17.77
2023-01-29T14:38:03.403Z,18.67
2023-01-29T14:40:32.254Z,18.00
2023-01-29T14:43:08.612Z,17.87
2023-01-29T14:45:38.782Z,22.50
2023-01-29T14:48:12.034Z,19.33
2023-01-29T14:50:53.580Z,20.90
2023-01-29T14:53:58.505Z,18.87
2023-01-29T14:56:42.056Z,18.67
2023-01-29T14:59:20.677Z,18.43
2023-01-29T15:02:03.550Z,18.63
2023-01-29T15:04:48.045Z,18.63
2023-01-29T15:07:47.379Z,19.03
2023-01-29T15:10:44.397Z,16.90
2023-01-29T15:13:30.654Z,17.33
2023-01-29T15:16:09.721Z,36.20
2023-01-29T15:18:42.927Z,19.67
2023-01-29T15:21:20.197Z,17.70
2023-01-29T15:23:48.876Z,18.57
2023-01-29T15:26:22.079Z,18.53
2023-01-29T15:29:04.314Z,18.53
2023-01-29T15:31:32.602Z,18.83
2023-01-29T15:34:06.969Z,19.70
2023-01-29T15:36:34.520Z,17.37
2023-01-29T15:39:22.625Z,17.93
2023-01-29T15:41:52.241Z,18.53
2023-01-29T15:44:22.448Z,17.60
2023-01-29T15:46:57.028Z,18.30
2023-01-29T15:49:32.818Z,18.33
2023-01-29T15:52:05.672Z,17.70
2023-01-29T15:54:35.005Z,17.53
2023-01-29T15:57:03.358Z,17.77
2023-01-29T15:59:35.799Z,18.53
2023-01-29T16:02:41.573Z,17.43
2023-01-29T16:05:23.037Z,18.97
2023-01-29T16:07:52.013Z,17.97
2023-01-29T16:10:29.199Z,18.33
2023-01-29T16:12:57.157Z,17.67
2023-01-29T16:15:34.055Z,18.23
2023-01-29T16:18:05.130Z,19.33
2023-01-29T16:20:46.140Z,18.80
2023-01-29T16:23:28.252Z,19.70
2023-01-29T16:26:02.441Z,20.10
2023-01-29T16:28:30.234Z,19.47
2023-01-29T16:31:00.613Z,20.10
2023-01-29T16:33:36.611Z,19.83
2023-01-29T16:36:18.783Z,19.10
2023-01-29T16:39:05.460Z,20.77
2023-01-29T16:41:38.303Z,19.90
2023-01-29T16:44:34.784Z,19.87
2023-01-29T16:47:38.874Z,20.40
2023-01-29T16:50:40.733Z,20.90
2023-01-29T16:53:21.457Z,19.30
2023-01-29T16:55:50.836Z,20.13
2023-01-29T16:58:21.939Z,18.73
2023-01-29T17:00:55.379Z,20.17
2023-01-29T17:03:26.477Z,19.93
2023-01-29T17:05:54.370Z,20.17
2023-01-29T17:08:34.494Z,20.40
2023-01-29T17:11:02.932Z,21.10
2023-01-29T17:13:42.676Z,19.70
2023-01-29T17:16:37.506Z,19.90
2023-01-29T17:19:18.476Z,19.93
2023-01-29T17:21:46.329Z,19.77
2023-01-29T17:24:13.367Z,19.50
2023-01-29T17:26:40.700Z,20.23
2023-01-29T17:29:21.527Z,20.17
2023-01-29T17:31:48.555Z,21.20
2023-01-29T17:34:16.733Z,21.40
2023-01-29T17:36:44.691Z,20.03
2023-01-29T17:39:23.531Z,20.83
2023-01-29T17:41:53.711Z,20.53
2023-01-29T17:44:22.043Z,20.37
2023-01-29T17:46:49.716Z,19.80
2023-01-29T17:49:29.432Z,19.77
2023-01-29T17:51:57.342Z,19.60
2023-01-29T17:54:25.707Z,19.33
2023-01-29T17:56:53.748Z,19.60
2023-01-29T17:59:27.681Z,17.73
2023-01-29T18:01:54.726Z,20.00
2023-01-29T18:04:22.083Z,19.60
2023-01-29T18:06:51.441Z,20.07
2023-01-29T18:09:21.362Z,19.40
2023-01-29T18:11:49.543Z,19.87
2023-01-29T18:14:16.624Z,20.03
2023-01-29T18:16:45.379Z,19.33
2023-01-29T18:19:27.311Z,20.47
2023-01-29T18:21:54.665Z,21.13
2023-01-29T18:24:21.682Z,20.37
2023-01-29T18:26:51.281Z,20.70
2023-01-29T18:29:18.274Z,20.83
2023-01-29T18:31:48.210Z,22.10
2023-01-29T18:34:15.208Z,20.83
2023-01-29T18:36:46.654Z,22.80
2023-01-29T18:39:15.285Z,22.83
2023-01-29T18:41:42.643Z,23.00
2023-01-29T18:44:11.657Z,22.63
2023-01-29T18:46:38.736Z,22.67
2023-01-29T18:49:05.833Z,22.20
2023-01-29T18:51:32.853Z,23.07
2023-01-29T18:53:59.880Z,22.30
2023-01-29T18:56:26.846Z,21.17
2023-01-29T18:58:56.944Z,21.97
2023-01-29T19:01:24.429Z,22.80
2023-01-29T19:03:52.082Z,21.63
2023-01-29T19:06:19.141Z,20.93
2023-01-29T19:08:47.399Z,21.93
2023-01-29T19:11:14.523Z,21.90
2023-01-29T19:13:42.585Z,20.93
2023-01-29T19:16:12.043Z,20.60
2023-01-29T19:18:39.430Z,21.37
2023-01-29T19:21:12.996Z,21.73
2023-01-29T19:23:42.282Z,22.53
2023-01-29T19:26:10.093Z,22.57
2023-01-29T19:28:37.127Z,22.50
2023-01-29T19:31:05.258Z,21.70
2023-01-29T19:33:32.249Z,21.40
2023-01-29T19:36:00.046Z,24.23
2023-01-29T19:38:27.959Z,22.63
2023-01-29T19:40:57.524Z,22.43
2023-01-29T19:43:24.478Z,22.20
2023-01-29T19:45:59.039Z,23.37
2023-01-29T19:48:26.959Z,22.83
2023-01-29T19:51:04.377Z,23.07
2023-01-29T19:53:31.807Z,22.33
2023-01-29T19:56:05.660Z,24.33
2023-01-29T19:58:36.318Z,23.47
2023-01-29T20:01:12.686Z,23.50
2023-01-29T20:03:42.045Z,22.70
2023-01-29T20:06:09.718Z,23.30
2023-01-29T20:08:36.896Z,23.20
2023-01-29T20:11:05.567Z,22.00
2023-01-29T20:13:33.514Z,22.50
2023-01-29T20:16:05.578Z,23.20
2023-01-29T20:18:32.749Z,23.27
2023-01-29T20:20:59.959Z,24.67
2023-01-29T20:23:37.227Z,24.23
2023-01-29T20:26:11.710Z,24.17
2023-01-29T20:28:39.472Z,23.27
2023-01-29T20:31:07.576Z,23.80
2023-01-29T20:33:37.047Z,23.53
2023-01-29T20:36:10.078Z,22.57
2023-01-29T20:38:37.455Z,23.60
2023-01-29T20:41:12.819Z,24.40
2023-01-29T20:43:40.452Z,23.43
2023-01-29T20:46:08.806Z,23.03
2023-01-29T20:48:36.034Z,23.73
2023-01-29T20:51:13.112Z,24.00
2023-01-29T20:53:43.265Z,23.77
2023-01-29T20:56:11.186Z,22.97
2023-01-29T20:58:41.283Z,24.47
2023-01-29T21:01:15.752Z,24.97
2023-01-29T21:03:43.422Z,25.37
2023-01-29T21:06:11.440Z,24.47
2023-01-29T21:08:39.967Z,23.70
2023-01-29T21:11:08.630Z,24.33
2023-01-29T21:13:35.850Z,24.10
2023-01-29T21:16:04.379Z,25.73
2023-01-29T21:18:32.341Z,25.90
2023-01-29T21:20:59.354Z,24.93
2023-01-29T21:23:26.308Z,24.67
2023-01-29T21:25:53.300Z,26.07
2023-01-29T21:28:20.294Z,25.47
2023-01-29T21:30:47.949Z,25.03
2023-01-29T21:33:14.917Z,27.10
2023-01-29T21:35:41.900Z,25.27
2023-01-29T21:38:09.331Z,25.77
2023-01-29T21:40:36.331Z,26.93
2023-01-29T21:43:13.295Z,25.67
2023-01-29T21:45:41.138Z,26.83
2023-01-29T21:48:10.109Z,27.33
2023-01-29T21:50:37.685Z,26.77
2023-01-29T21:53:04.889Z,26.90
2023-01-29T21:55:32.753Z,27.70
2023-01-29T21:58:00.615Z,26.03
2023-01-29T22:00:28.034Z,26.37
2023-01-29T22:02:55.861Z,27.10
2023-01-29T22:05:22.910Z,26.87
2023-01-29T22:07:50.173Z,27.83
2023-01-29T22:10:19.159Z,29.03
2023-01-29T22:12:47.412Z,26.50
2023-01-29T22:15:15.715Z,26.30
2023-01-29T22:17:43.845Z,25.83
2023-01-29T22:20:13.849Z,27.23
2023-01-29T22:22:40.995Z,27.53
2023-01-29T22:25:09.460Z,26.57
2023-01-29T22:27:36.861Z,27.53
2023-01-29T22:30:05.621Z,25.40
2023-01-29T22:32:33.375Z,26.77
2023-01-29T22:35:00.386Z,27.63
2023-01-29T22:37:27.362Z,28.57
2023-01-29T22:39:54.368Z,26.67
2023-01-29T22:42:21.473Z,25.80
2023-01-29T22:44:48.932Z,27.07
2023-01-29T22:47:16.252Z,26.63
2023-01-29T22:49:45.519Z,27.97
2023-01-29T22:52:12.685Z,28.43
2023-01-29T22:54:42.275Z,28.00
2023-01-29T22:57:14.479Z,27.50
2023-01-29T22:59:41.480Z,29.37
2023-01-29T23:02:09.355Z,28.67
2023-01-29T23:04:36.636Z,30.17
2023-01-29T23:07:04.152Z,29.17
2023-01-29T23:09:31.159Z,29.87
2023-01-29T23:11:58.247Z,29.10
2023-01-29T23:14:25.264Z,28.70
2023-01-29T23:16:52.292Z,31.13
2023-01-29T23:19:20.206Z,29.80
2023-01-29T23:21:47.186Z,28.57
2023-01-29T23:24:14.573Z,29.37
2023-01-29T23:27:00.608Z,28.30
2023-01-29T23:29:27.559Z,29.53
2023-01-29T23:31:54.557Z,28.77
2023-01-29T23:34:21.597Z,28.70
2023-01-29T23:36:48.716Z,29.30
2023-01-29T23:39:15.716Z,27.27
2023-01-29T23:41:43.112Z,28.17
2023-01-29T23:44:10.227Z,26.93
2023-01-29T23:46:37.214Z,27.73
2023-01-29T23:49:04.278Z,27.43
2023-01-29T23:51:31.450Z,26.80
2023-01-29T23:53:58.674Z,25.50
2023-01-29T23:56:25.869Z,27.03
2023-01-29T23:58:54.869Z,26.07
